Time;durP1;ratioP1;P1;durP2;ratioP2;P2;SDS_P1;SDS_P2;PMS_P1;PMS_P2;Temp;Humidity;BMP_temperature;BMP_pressure;BME280_temperature;BME280_humidity;BME280_pressure;Samples;Min_cycle;Max_cycle;Signal;HPM_P1;HPM_P2
2021/05/01 00:00:06;;;;;;;50.90;18.53;;;7.90;99.90;;;;;;6165282;23;20438;-80
2021/05/01 00:02:35;;;;;;;38.47;20.10;;;7.80;99.90;;;;;;6156304;23;20437;-81
2021/05/01 00:05:05;;;;;;;33.40;17.03;;;7.80;99.90;;;;;;6165225;23;20421;-80
2021/05/01 00:07:34;;;;;;;46.27;20.40;;;7.60;99.90;;;;;;6155629;23;20400;-80
2021/05/01 00:10:03;;;;;;;51.40;22.33;;;7.60;99.90;;;;;;6155382;23;20445;-80
2021/05/01 00:12:29;;;;;;;34.37;21.30;;;7.60;99.90;;;;;;6154379;23;20405;-80
2021/05/01 00:14:58;;;;;;;35.50;21.43;;;7.60;99.90;;;;;;6165159;23;20932;-80
2021/05/01 00:17:31;;;;;;;37.57;18.93;;;7.60;99.90;;;;;;6155420;23;20501;-80
2021/05/01 00:20:00;;;;;;;40.00;20.20;;;7.50;99.90;;;;;;6155753;23;20456;-80
2021/05/01 00:22:29;;;;;;;36.47;21.47;;;7.60;99.90;;;;;;6158209;23;20407;-80
2021/05/01 00:24:56;;;;;;;40.63;26.93;;;7.50;99.90;;;;;;6165157;23;20508;-80
2021/05/01 00:27:24;;;;;;;48.43;27.13;;;7.50;99.90;;;;;;6153969;23;20398;-80
2021/05/01 00:29:53;;;;;;;45.17;27.80;;;7.60;99.90;;;;;;6165793;23;20851;-81
2021/05/01 00:32:19;;;;;;;56.63;25.83;;;7.60;99.90;;;;;;6158068;23;20769;-80
2021/05/01 00:34:46;;;;;;;45.70;26.43;;;7.60;99.90;;;;;;6155423;23;20500;-80
2021/05/01 00:37:12;;;;;;;48.10;23.53;;;7.60;99.90;;;;;;6165525;23;20505;-81
2021/05/01 00:39:40;;;;;;;43.20;26.67;;;7.70;99.90;;;;;;6155831;23;20461;-80
2021/05/01 00:42:07;;;;;;;49.33;24.20;;;7.70;99.90;;;;;;6163889;23;20900;-80
2021/05/01 00:44:37;;;;;;;45.77;29.10;;;7.70;99.90;;;;;;6155579;23;20730;-81
2021/05/01 00:47:07;;;;;;;37.97;21.33;;;7.60;99.90;;;;;;6155753;23;20771;-81
2021/05/01 00:49:36;;;;;;;46.40;22.97;;;7.60;99.90;;;;;;6155572;23;20412;-80
2021/05/01 00:52:03;;;;;;;33.70;22.17;;;7.70;99.90;;;;;;6155711;23;20405;-80
2021/05/01 00:54:33;;;;;;;36.20;20.80;;;7.60;99.90;;;;;;6155127;23;20407;-81
2021/05/01 00:57:02;;;;;;;35.47;21.40;;;7.50;99.90;;;;;;6163473;23;20513;-81
2021/05/01 00:59:31;;;;;;;34.83;23.13;;;7.40;99.90;;;;;;6155392;23;20460;-80
2021/05/01 01:02:00;;;;;;;56.93;32.30;;;7.40;99.90;;;;;;6155092;23;20438;-81
2021/05/01 01:04:27;;;;;;;40.80;30.87;;;7.40;99.90;;;;;;6164968;23;20416;-80
2021/05/01 01:06:54;;;;;;;52.27;36.90;;;7.30;99.90;;;;;;6155513;23;20797;-80
2021/05/01 01:09:21;;;;;;;53.13;32.43;;;7.40;99.90;;;;;;6155375;23;20498;-80
2021/05/01 01:11:47;;;;;;;53.00;33.77;;;7.40;99.90;;;;;;6163769;23;20413;-81
2021/05/01 01:14:16;;;;;;;38.97;29.90;;;7.40;99.90;;;;;;6155664;23;20489;-80
2021/05/01 01:16:47;;;;;;;48.60;32.10;;;7.40;99.90;;;;;;6155246;23;20449;-81
2021/05/01 01:19:14;;;;;;;67.63;42.43;;;7.50;99.90;;;;;;6155497;23;20408;-80
2021/05/01 01:21:43;;;;;;;57.03;41.70;;;7.40;99.90;;;;;;6155571;23;20483;-81
2021/05/01 01:24:14;;;;;;;40.60;34.53;;;7.30;99.90;;;;;;6155268;23;20439;-80
2021/05/01 01:26:44;;;;;;;52.13;40.70;;;7.20;99.90;;;;;;6153542;23;20409;-81
2021/05/01 01:29:14;;;;;;;51.17;45.00;;;7.00;99.90;;;;;;6156090;23;20408;-80
2021/05/01 01:31:41;;;;;;;48.53;43.30;;;6.90;99.90;;;;;;6167221;23;20409;-81
2021/05/01 01:34:09;;;;;;;49.67;44.03;;;6.80;99.90;;;;;;6167278;23;20402;-80
2021/05/01 01:36:36;;;;;;;58.97;47.00;;;6.70;99.90;;;;;;6166581;23;20468;-80
2021/05/01 01:39:04;;;;;;;63.63;56.90;;;6.60;99.90;;;;;;6166999;23;20491;-80
2021/05/01 01:41:33;;;;;;;71.93;65.20;;;6.50;99.90;;;;;;6166252;23;20551;-81
2021/05/01 01:43:59;;;;;;;63.43;58.03;;;6.40;99.90;;;;;;6157047;23;20742;-81
2021/05/01 01:46:29;;;;;;;78.37;71.57;;;6.30;99.90;;;;;;6166650;23;20402;-81
2021/05/01 01:48:56;;;;;;;76.97;70.47;;;6.20;99.90;;;;;;6157039;23;20410;-80
2021/05/01 01:51:23;;;;;;;79.33;72.77;;;6.10;99.90;;;;;;6157567;23;20462;-80
2021/05/01 01:53:52;;;;;;;85.53;78.33;;;6.00;99.90;;;;;;6156876;23;20404;-81
2021/05/01 01:56:19;;;;;;;74.07;68.27;;;5.80;99.90;;;;;;6165349;23;20948;-82
2021/05/01 01:58:48;;;;;;;72.90;67.40;;;5.70;99.90;;;;;;6156902;23;20408;-82
2021/05/01 02:01:17;;;;;;;83.53;76.23;;;5.70;99.90;;;;;;6166736;23;20778;-83
2021/05/01 02:03:44;;;;;;;88.23;80.53;;;5.60;99.90;;;;;;6156877;23;20402;-83
2021/05/01 02:06:12;;;;;;;83.10;76.77;;;5.40;99.90;;;;;;6166604;23;20814;-80
2021/05/01 02:08:42;;;;;;;92.63;85.30;;;5.30;99.90;;;;;;6157010;23;20404;-79
2021/05/01 02:11:08;;;;;;;95.23;87.30;;;5.10;99.90;;;;;;6155395;23;20402;-80
2021/05/01 02:13:35;;;;;;;93.10;85.67;;;5.00;99.90;;;;;;6157111;23;20422;-80
2021/05/01 02:16:06;;;;;;;98.20;90.60;;;4.90;99.90;;;;;;6156902;23;20450;-80
2021/05/01 02:18:33;;;;;;;106.80;98.77;;;4.80;99.90;;;;;;6166808;23;20774;-80
2021/05/01 02:21:00;;;;;;;104.97;97.37;;;4.80;99.90;;;;;;6157668;23;20410;-80
2021/05/01 02:23:29;;;;;;;114.07;106.03;;;4.70;99.90;;;;;;6158060;23;20399;-77
2021/05/01 02:25:55;;;;;;;111.97;104.57;;;4.80;99.90;;;;;;6155223;23;20738;-78
2021/05/01 02:28:22;;;;;;;120.70;110.67;;;4.70;99.90;;;;;;6156416;23;20444;-80
2021/05/01 02:30:48;;;;;;;114.73;105.43;;;4.70;99.90;;;;;;6156361;23;20438;-79
2021/05/01 02:33:16;;;;;;;112.10;103.10;;;4.50;99.90;;;;;;6156596;23;20435;-80
2021/05/01 02:35:44;;;;;;;124.27;116.07;;;4.50;99.90;;;;;;6156153;23;20757;-79
2021/05/01 02:38:13;;;;;;;124.20;116.50;;;4.60;99.90;;;;;;6156706;23;20406;-80
2021/05/01 02:40:40;;;;;;;131.13;122.67;;;4.70;99.90;;;;;;6156272;23;20402;-80
2021/05/01 02:43:10;;;;;;;143.87;132.97;;;4.60;99.90;;;;;;6164902;23;20453;-80
2021/05/01 02:45:38;;;;;;;122.33;113.63;;;4.60;99.90;;;;;;6166514;23;20702;-80
2021/05/01 02:48:06;;;;;;;121.40;111.93;;;4.60;99.90;;;;;;6156336;23;20407;-80
2021/05/01 02:50:35;;;;;;;105.77;97.77;;;4.60;99.90;;;;;;6166068;23;20403;-81
2021/05/01 02:54:01;;;;;;;;;;;;;;;;;;;;;
2021/05/01 02:56:27;;;;;;;103.70;96.33;;;4.60;99.90;;;;;;6118735;23;20449;-80
2021/05/01 02:58:55;;;;;;;112.67;104.30;;;4.50;99.90;;;;;;6166020;23;20763;-80
2021/05/01 03:01:22;;;;;;;118.20;109.90;;;4.40;99.90;;;;;;6156187;23;20438;-80
2021/05/01 03:03:51;;;;;;;126.57;117.33;;;4.20;99.90;;;;;;6166412;23;20468;-80
2021/05/01 03:06:28;;;;;;;121.73;112.63;;;4.10;99.90;;;;;;6166529;23;20406;-80
2021/05/01 03:09:03;;;;;;;124.30;114.40;;;4.00;99.90;;;;;;6166373;23;20732;-80
2021/05/01 03:11:32;;;;;;;116.20;108.40;;;4.00;99.90;;;;;;6154317;23;20878;-81
2021/05/01 03:13:59;;;;;;;123.87;115.07;;;3.80;99.90;;;;;;6156487;23;20402;-80
2021/05/01 03:16:34;;;;;;;114.97;107.53;;;3.70;99.90;;;;;;6156095;23;20837;-80
2021/05/01 03:19:08;;;;;;;121.63;112.47;;;3.80;99.90;;;;;;6166302;23;20461;-80
2021/05/01 03:21:35;;;;;;;129.03;118.33;;;3.80;99.90;;;;;;6156265;23;20438;-79
2021/05/01 03:24:02;;;;;;;128.80;117.80;;;3.80;99.90;;;;;;6156333;23;20403;-76
2021/05/01 03:26:28;;;;;;;129.63;120.33;;;3.70;99.90;;;;;;6154771;23;20413;-79
2021/05/01 03:28:57;;;;;;;134.03;123.97;;;3.70;99.90;;;;;;6156207;23;20402;-79
2021/05/01 03:31:24;;;;;;;141.30;131.03;;;3.60;99.90;;;;;;6156411;23;20433;-79
2021/05/01 03:33:52;;;;;;;131.43;122.90;;;3.60;99.90;;;;;;6156305;23;20406;-79
2021/05/01 03:36:18;;;;;;;143.00;132.03;;;3.60;99.90;;;;;;6156165;23;20705;-79
2021/05/01 03:38:46;;;;;;;145.33;135.13;;;3.50;99.90;;;;;;6156051;23;20413;-79
2021/05/01 03:41:12;;;;;;;142.07;130.63;;;3.40;99.90;;;;;;6154517;23;20398;-80
2021/05/01 03:44:01;;;;;;;;;;;;;;;;;;;;;
2021/05/01 03:46:28;;;;;;;142.87;132.87;;;3.40;99.90;;;;;;6157750;23;20488;-80
2021/05/01 03:48:54;;;;;;;143.87;133.37;;;3.30;99.90;;;;;;6165799;23;20735;-79
2021/05/01 03:51:20;;;;;;;130.93;122.27;;;3.30;99.90;;;;;;6165406;23;20459;-79
2021/05/01 03:53:48;;;;;;;140.10;128.73;;;3.30;99.90;;;;;;6165681;23;20428;-80
2021/05/01 03:56:14;;;;;;;136.13;123.33;;;3.40;99.90;;;;;;6153902;23;20528;-79
2021/05/01 03:58:40;;;;;;;109.23;102.63;;;3.50;99.90;;;;;;6156081;23;20449;-80
2021/05/01 04:01:07;;;;;;;116.50;108.00;;;3.60;99.90;;;;;;6164918;23;20771;-79
2021/05/01 04:03:33;;;;;;;117.47;107.87;;;3.50;99.90;;;;;;6156444;23;20405;-79
2021/05/01 04:06:00;;;;;;;137.90;127.40;;;3.50;99.90;;;;;;6156004;23;20437;-79
2021/05/01 04:08:26;;;;;;;133.23;123.83;;;3.30;99.90;;;;;;6155865;23;20489;-79
2021/05/01 04:10:57;;;;;;;130.00;121.80;;;3.20;99.90;;;;;;6154913;23;20402;-79
2021/05/01 04:13:23;;;;;;;134.20;124.20;;;3.20;99.90;;;;;;6156041;23;20435;-78
2021/05/01 04:15:50;;;;;;;147.70;134.27;;;3.10;99.90;;;;;;6155835;23;20938;-79
2021/05/01 04:18:16;;;;;;;145.90;135.47;;;3.10;99.90;;;;;;6155697;23;20402;-79
2021/05/01 04:20:43;;;;;;;160.47;147.70;;;3.20;99.90;;;;;;6165511;23;20442;-79
2021/05/01 04:23:09;;;;;;;143.80;136.03;;;3.20;99.90;;;;;;6155537;23;20398;-78
2021/05/01 04:25:36;;;;;;;151.87;142.47;;;3.30;99.90;;;;;;6165499;23;20477;-79
2021/05/01 04:28:04;;;;;;;157.87;145.53;;;3.50;99.90;;;;;;6154267;23;20494;-79
2021/05/01 04:30:30;;;;;;;152.00;142.13;;;3.50;99.90;;;;;;6155814;23;20464;-80
2021/05/01 04:32:56;;;;;;;158.57;147.27;;;3.50;99.90;;;;;;6165557;23;20442;-79
2021/05/01 04:35:23;;;;;;;165.93;155.30;;;3.50;99.90;;;;;;6155438;23;20437;-79
2021/05/01 04:37:49;;;;;;;153.80;144.60;;;3.50;99.90;;;;;;6155758;23;20417;-79
2021/05/01 04:40:16;;;;;;;154.20;143.13;;;3.50;99.90;;;;;;6155465;23;20910;-79
2021/05/01 04:42:48;;;;;;;156.20;146.27;;;3.40;99.90;;;;;;6154288;23;20745;-79
2021/05/01 04:45:15;;;;;;;160.07;149.80;;;3.50;99.90;;;;;;6155338;23;20890;-79
2021/05/01 04:47:42;;;;;;;160.07;149.03;;;3.40;99.90;;;;;;6155536;23;20413;-79
2021/05/01 04:50:10;;;;;;;156.27;145.97;;;3.40;99.90;;;;;;6155791;23;20402;-79
2021/05/01 04:52:36;;;;;;;154.40;144.30;;;3.30;99.90;;;;;;6155774;23;20940;-79
2021/05/01 04:55:09;;;;;;;150.17;141.57;;;3.30;99.90;;;;;;6155673;23;20409;-79
2021/05/01 04:57:36;;;;;;;152.00;143.43;;;3.20;99.90;;;;;;6154451;23;20495;-79
2021/05/01 05:00:03;;;;;;;153.47;143.70;;;3.20;99.90;;;;;;6165307;23;20500;-79
2021/05/01 05:02:30;;;;;;;163.67;153.83;;;3.30;99.90;;;;;;6165517;23;20413;-79
2021/05/01 05:04:57;;;;;;;154.97;145.40;;;3.40;99.90;;;;;;6167063;23;20410;-79
2021/05/01 05:07:23;;;;;;;162.77;151.23;;;3.40;99.90;;;;;;6157559;23;20402;-79
2021/05/01 05:09:50;;;;;;;164.87;154.43;;;3.50;99.90;;;;;;6157594;23;20401;-82
2021/05/01 05:12:16;;;;;;;155.97;146.23;;;3.60;99.90;;;;;;6166258;23;20401;-82
2021/05/01 05:14:43;;;;;;;161.97;150.97;;;3.60;99.90;;;;;;6166953;23;20574;-79
2021/05/01 05:17:09;;;;;;;157.80;147.20;;;3.60;99.90;;;;;;6157458;23;20434;-80
2021/05/01 05:19:36;;;;;;;171.47;158.30;;;3.70;99.90;;;;;;6167135;23;20429;-79
2021/05/01 05:22:02;;;;;;;175.33;164.03;;;3.80;99.90;;;;;;6168324;23;20465;-79
2021/05/01 05:24:29;;;;;;;169.37;157.10;;;4.00;99.90;;;;;;6157559;23;20848;-79
2021/05/01 05:26:55;;;;;;;179.53;168.03;;;4.50;99.90;;;;;;6155164;23;20913;-79
2021/05/01 05:29:21;;;;;;;187.40;175.53;;;4.80;99.90;;;;;;6157149;23;20441;-80
2021/05/01 05:31:48;;;;;;;215.83;200.90;;;5.20;99.90;;;;;;6166617;23;20457;-79
2021/05/01 05:34:14;;;;;;;219.60;203.00;;;5.50;99.90;;;;;;6166943;23;20807;-79
2021/05/01 05:36:41;;;;;;;239.13;221.97;;;5.80;99.90;;;;;;6156873;23;20986;-80
2021/05/01 05:39:08;;;;;;;247.50;229.70;;;6.00;99.90;;;;;;6156825;23;20460;-79
2021/05/01 05:41:34;;;;;;;269.23;250.33;;;6.30;99.90;;;;;;6155481;23;20797;-80
2021/05/01 05:44:01;;;;;;;261.83;243.77;;;6.50;99.90;;;;;;6156604;23;20734;-80
2021/05/01 05:46:27;;;;;;;207.57;188.13;;;6.80;99.90;;;;;;6156128;23;20438;-80
2021/05/01 05:48:55;;;;;;;152.43;136.93;;;7.10;99.90;;;;;;6166542;23;20550;-80
2021/05/01 05:51:22;;;;;;;116.70;105.20;;;7.30;99.90;;;;;;6156845;23;20437;-79
2021/05/01 05:53:49;;;;;;;96.50;87.27;;;7.50;99.90;;;;;;6156231;23;20456;-80
2021/05/01 05:56:16;;;;;;;68.20;49.93;;;7.60;99.90;;;;;;6155182;23;20557;-80
2021/05/01 05:58:42;;;;;;;60.27;44.30;;;7.80;99.90;;;;;;6164774;23;20415;-79
2021/05/01 06:01:09;;;;;;;44.93;26.77;;;8.00;99.90;;;;;;6165613;23;20937;-79
2021/05/01 06:03:36;;;;;;;42.80;24.87;;;8.10;99.90;;;;;;6155767;23;20442;-79
2021/05/01 06:06:05;;;;;;;42.77;20.70;;;8.20;99.90;;;;;;6165714;23;20409;-80
2021/05/01 06:08:33;;;;;;;42.07;18.13;;;8.40;99.90;;;;;;6156325;23;20465;-80
2021/05/01 06:11:02;;;;;;;37.77;16.30;;;8.70;99.90;;;;;;6153786;23;20881;-81
2021/05/01 06:13:32;;;;;;;37.93;16.03;;;8.50;99.90;;;;;;6156618;23;20412;-81
2021/05/01 06:16:02;;;;;;;28.37;13.00;;;8.30;99.90;;;;;;6165760;23;20467;-81
2021/05/01 06:18:34;;;;;;;31.90;16.33;;;8.30;99.90;;;;;;6166029;23;20409;-81
2021/05/01 06:21:01;;;;;;;32.00;13.83;;;8.40;99.90;;;;;;6155798;23;20440;-80
2021/05/01 06:23:28;;;;;;;35.70;15.30;;;8.30;95.40;;;;;;6165923;23;20413;-81
2021/05/01 06:25:55;;;;;;;41.33;14.37;;;8.40;97.40;;;;;;6165751;23;20426;-81
2021/05/01 06:28:27;;;;;;;33.90;14.90;;;8.50;96.80;;;;;;6155755;23;20449;-81
2021/05/01 06:31:06;;;;;;;25.63;11.93;;;8.70;94.30;;;;;;6155981;23;20404;-81
2021/05/01 06:33:45;;;;;;;36.63;13.07;;;8.80;88.40;;;;;;6165999;23;20404;-82
2021/05/01 06:36:24;;;;;;;;;;;;;;;;;;;;;
2021/05/01 06:39:02;;;;;;;34.27;15.20;;;8.90;80.00;;;;;;6143002;23;20412;-82
2021/05/01 06:41:38;;;;;;;37.10;15.43;;;8.70;76.80;;;;;;6164730;23;20401;-81
2021/05/01 06:44:13;;;;;;;38.80;16.47;;;8.70;80.00;;;;;;6156213;23;20404;-81
2021/05/01 06:46:42;;;;;;;31.50;16.93;;;8.70;84.00;;;;;;6155686;23;20406;-81
2021/05/01 06:49:13;;;;;;;32.57;15.57;;;8.40;89.50;;;;;;6155540;23;20403;-80
2021/05/01 06:51:43;;;;;;;32.60;15.10;;;8.50;88.00;;;;;;6152516;23;20407;-80
2021/05/01 06:57:35;;;;;;;;;;;;;;;;;;;;;
2021/05/01 07:00:48;;;;;;;;;;;;;;;;;;;;;
2021/05/01 07:03:57;;;;;;;;;;;;;;;;;;;;;
2021/05/01 07:06:48;;;;;;;50.10;13.70;;;8.80;78.40;;;;;;5921226;23;20424;-82
2021/05/01 07:09:24;;;;;;;25.40;13.40;;;8.60;67.10;;;;;;5947875;24;20461;-81
2021/05/01 07:12:47;;;;;;;31.73;15.67;;;8.50;60.60;;;;;;5959080;24;20424;-82
2021/05/01 07:16:10;;;;;;;36.13;17.27;;;8.60;70.60;;;;;;5926270;24;20440;-81
2021/05/01 07:18:52;;;;;;;33.07;16.20;;;8.80;68.20;;;;;;5950941;24;20491;-81
2021/05/01 07:21:31;;;;;;;31.17;15.03;;;8.70;65.90;;;;;;5950538;24;20908;-81
2021/05/01 07:24:33;;;;;;;;;;;;;;;;;;;;;
2021/05/01 07:27:04;;;;;;;22.60;10.27;;;8.60;64.30;;;;;;5958878;24;20471;-82
2021/05/01 07:30:01;;;;;;;21.90;9.13;;;8.70;60.80;;;;;;6040035;23;20446;-82
2021/05/01 07:35:33;;;;;;;42.17;19.83;;;8.80;60.90;;;;;;6165127;23;20402;-83
2021/05/01 07:38:44;;;;;;;43.90;20.83;;;8.70;60.80;;;;;;6164221;23;20892;-84
2021/05/01 07:41:16;;;;;;;35.67;18.77;;;9.10;56.70;;;;;;6117912;23;20433;-80
2021/05/01 07:43:48;;;;;;;31.50;15.97;;;9.30;55.80;;;;;;6156354;23;20457;-81
2021/05/01 07:46:16;;;;;;;29.83;13.77;;;9.50;48.00;;;;;;6155726;23;20965;-81
2021/05/01 07:48:54;;;;;;;;;;;;;;;;;;;;;
2021/05/01 07:51:27;;;;;;;29.10;11.57;;;9.80;41.10;;;;;;6135153;23;20431;-81
2021/05/01 07:53:54;;;;;;;26.30;12.50;;;9.90;38.00;;;;;;6165894;23;20414;-81
2021/05/01 07:56:39;;;;;;;35.57;14.47;;;9.80;39.40;;;;;;6154301;23;20451;-81
2021/05/01 07:59:06;;;;;;;29.90;12.50;;;9.90;40.90;;;;;;6154627;23;20420;-81
2021/05/01 08:01:33;;;;;;;31.73;11.63;;;10.30;28.30;;;;;;6155373;23;20437;-81
2021/05/01 08:04:07;;;;;;;28.80;13.80;;;10.00;28.80;;;;;;6155817;23;20430;-81
2021/05/01 08:06:33;;;;;;;26.40;12.10;;;10.30;26.30;;;;;;6155512;23;20453;-81
2021/05/01 08:09:33;;;;;;;;;;;;;;;;;;;;;
2021/05/01 08:15:16;;;;;;;30.97;13.83;;;10.60;25.90;;;;;;6130328;23;20413;-81
2021/05/01 08:17:52;;;;;;;31.23;13.90;;;10.60;23.30;;;;;;6165211;23;20427;-81
2021/05/01 08:20:20;;;;;;;28.07;10.47;;;10.90;21.70;;;;;;6155146;23;20465;-81
2021/05/01 08:22:53;;;;;;;28.97;11.80;;;10.70;20.30;;;;;;6155622;23;20820;-81
2021/05/01 08:25:20;;;;;;;28.00;12.20;;;10.40;20.10;;;;;;6155817;23;20404;-81
2021/05/01 08:27:46;;;;;;;33.20;15.07;;;10.80;20.40;;;;;;6154279;23;20459;-81
2021/05/01 08:30:54;;;;;;;;;;;;;;;;;;;;;
2021/05/01 08:33:42;;;;;;;;;;;;;;;;;;;;;
2021/05/01 08:36:08;;;;;;;29.80;10.60;;;11.50;16.70;;;;;;6128607;23;20441;-81
2021/05/01 08:38:56;;;;;;;30.57;11.50;;;11.30;13.50;;;;;;6165828;23;20776;-82
2021/05/01 09:03:24;;;;;;;36.50;11.87;;;12.90;1.00;;;;;;6129296;23;20584;-84
2021/05/01 09:06:16;;;;;;;26.57;8.60;;;13.60;1.00;;;;;;6047906;23;20402;-84
2021/05/01 09:09:34;;;;;;;33.37;11.67;;;12.70;1.00;;;;;;6038287;23;20410;-82
2021/05/01 09:12:01;;;;;;;29.83;8.00;;;12.80;1.60;;;;;;6046669;23;20412;-81
2021/05/01 09:15:06;;;;;;;27.30;7.60;;;13.10;1.00;;;;;;6099155;23;20451;-83
2021/05/01 09:17:32;;;;;;;32.87;7.87;;;13.50;1.00;;;;;;6137196;23;20777;-82
2021/05/01 09:20:07;;;;;;;28.27;8.20;;;13.70;1.00;;;;;;6127605;23;20413;-81
2021/05/01 09:22:54;;;;;;;29.97;7.80;;;13.50;1.00;;;;;;6127995;23;20394;-82
2021/05/01 09:25:22;;;;;;;32.27;8.80;;;13.00;1.00;;;;;;6137091;23;20410;-81
2021/05/01 09:28:27;;;;;;;;;;;;;;;;;;;;;
2021/05/01 09:31:06;;;;;;;34.70;4.77;;;13.60;1.00;;;;;;6167130;23;20504;-82
2021/05/01 09:33:35;;;;;;;27.70;7.37;;;13.70;1.00;;;;;;6167312;23;20406;-84
2021/05/01 09:36:20;;;;;;;33.10;8.43;;;14.00;1.00;;;;;;6156893;23;20493;-83
2021/05/01 09:39:47;;;;;;;;;;;;;;;;;;;;;
2021/05/01 09:42:18;;;;;;;25.30;6.27;;;15.10;1.00;;;;;;6114659;23;20417;-81
2021/05/01 09:45:03;;;;;;;31.33;7.70;;;15.00;1.00;;;;;;6166454;23;20417;-82
2021/05/01 09:47:35;;;;;;;38.33;8.20;;;14.80;1.00;;;;;;6166469;23;20417;-82
2021/05/01 09:50:21;;;;;;;26.73;6.93;;;14.10;1.00;;;;;;6156595;23;20402;-81
2021/05/01 09:53:32;;;;;;;25.73;6.10;;;14.30;1.00;;;;;;6157278;23;20882;-83
2021/05/01 09:59:29;;;;;;;;;;;;;;;;;;;;;
2021/05/01 10:02:32;;;;;;;29.27;7.70;;;15.60;1.00;;;;;;6156096;23;20413;-82
2021/05/01 10:05:55;;;;;;;31.63;6.20;;;14.80;1.00;;;;;;6156472;23;20398;-82
2021/05/01 10:12:38;;;;;;;29.93;7.30;;;15.70;1.00;;;;;;5920160;23;20420;-81
2021/05/01 10:24:49;;;;;;;32.60;7.37;;;17.60;1.00;;;;;;5777209;24;20424;-84
2021/05/01 10:27:47;;;;;;;32.23;7.13;;;17.90;1.00;;;;;;6046101;23;20410;-82
2021/05/01 10:30:33;;;;;;;35.87;8.10;;;16.90;1.00;;;;;;5852660;24;20435;-82
2021/05/01 10:36:56;;;;;;;31.27;7.20;;;16.00;1.00;;;;;;5944873;24;20451;-85
2021/05/01 10:39:59;;;;;;;31.27;6.97;;;15.30;1.00;;;;;;6055371;23;20428;-82
2021/05/01 10:52:25;;;;;;;;;;;;;;;;;;;;;
2021/05/01 10:59:04;;;;;;;26.80;6.20;;;15.50;1.00;;;;;;6013529;23;20488;-83
2021/05/01 11:04:56;;;;;;;25.93;5.40;;;17.30;1.00;;;;;;6134725;23;20796;-84
2021/05/01 11:17:49;;;;;;;26.73;5.73;;;14.20;1.00;;;;;;6075002;23;20446;-83
2021/05/01 11:20:40;;;;;;;25.30;6.20;;;13.70;1.00;;;;;;6098668;23;20716;-84
2021/05/01 11:23:30;;;;;;;24.93;6.77;;;13.30;1.00;;;;;;6136361;23;21061;-84
2021/05/01 11:26:25;;;;;;;23.37;5.10;;;14.70;1.00;;;;;;6135817;23;20776;-81
2021/05/01 11:52:49;;;;;;;33.57;4.73;;;20.50;1.00;;;;;;5825347;24;20426;-83
2021/05/01 12:09:49;;;;;;;28.87;4.80;;;15.80;1.00;;;;;;5803159;24;20540;-83
2021/05/01 12:47:10;;;;;;;;;;;;;;;;;;;;;
2021/05/01 12:50:47;;;;;;;;;;;;;;;;;;;;;
2021/05/01 13:18:41;;;;;;;27.90;4.07;;;18.40;1.00;;;;;;5865750;24;20450;-85
2021/05/01 13:21:21;;;;;;;29.13;4.10;;;17.40;1.00;;;;;;5883418;24;20438;-82
2021/05/01 13:24:39;;;;;;;;;;;;;;;;;;;;;
2021/05/01 13:27:12;;;;;;;28.40;5.20;;;16.40;1.00;;;;;;6012302;23;20449;-82
2021/05/01 13:42:05;;;;;;;25.90;3.73;;;17.00;1.00;;;;;;6095536;23;20756;-83
2021/05/01 13:44:53;;;;;;;28.10;3.60;;;15.80;1.00;;;;;;6137301;23;20410;-82
2021/05/01 13:47:25;;;;;;;25.10;3.60;;;15.50;1.00;;;;;;6127788;23;20504;-82
2021/05/01 13:50:13;;;;;;;30.13;3.97;;;15.00;1.00;;;;;;6127543;23;20590;-83
2021/05/01 13:52:48;;;;;;;22.30;2.47;;;14.70;1.00;;;;;;6137275;23;20407;-82
2021/05/01 13:55:27;;;;;;;23.77;3.70;;;14.50;1.00;;;;;;6137217;23;20414;-82
2021/05/01 13:58:11;;;;;;;21.47;4.30;;;14.20;1.00;;;;;;6126383;23;20490;-82
2021/05/01 14:01:04;;;;;;;18.80;3.13;;;14.70;1.00;;;;;;6137400;23;20415;-82
2021/05/01 14:03:54;;;;;;;20.60;3.53;;;16.10;1.00;;;;;;6036410;23;20442;-81
2021/05/01 14:06:26;;;;;;;21.83;3.40;;;15.20;1.00;;;;;;6117632;23;20981;-82
2021/05/01 14:08:59;;;;;;;21.90;3.40;;;14.70;1.00;;;;;;6137113;23;20751;-82
2021/05/01 14:11:35;;;;;;;21.77;3.60;;;14.80;1.00;;;;;;6135576;23;20415;-82
2021/05/01 14:14:08;;;;;;;24.20;4.40;;;15.30;1.00;;;;;;6136804;23;20402;-82
2021/05/01 14:16:41;;;;;;;21.57;3.20;;;15.30;1.00;;;;;;6134625;23;20973;-82
2021/05/01 14:19:28;;;;;;;21.33;3.30;;;15.30;1.00;;;;;;6124757;23;20411;-81
2021/05/01 14:21:55;;;;;;;23.60;4.40;;;14.90;1.00;;;;;;6135429;23;20421;-82
2021/05/01 14:24:34;;;;;;;21.73;3.43;;;14.70;1.00;;;;;;6125662;23;20411;-81
2021/05/01 14:30:51;;;;;;;18.77;3.13;;;14.40;1.00;;;;;;6034137;23;20441;-82
2021/05/01 14:33:38;;;;;;;;;;;;;;;;;;;;;
2021/05/01 14:36:21;;;;;;;19.13;3.53;;;14.60;1.00;;;;;;6153672;23;20409;-82
2021/05/01 14:42:00;;;;;;;18.80;3.00;;;14.80;1.00;;;;;;6162030;23;20418;-81
2021/05/01 14:44:31;;;;;;;17.67;2.90;;;14.60;1.00;;;;;;6154936;23;20774;-81
2021/05/01 14:46:59;;;;;;;20.90;3.27;;;14.40;1.00;;;;;;6155023;23;20410;-81
2021/05/01 14:49:37;;;;;;;17.40;2.60;;;14.00;1.00;;;;;;6154922;23;20429;-82
2021/05/01 14:52:33;;;;;;;18.47;2.70;;;13.60;1.00;;;;;;6154946;23;20500;-81
2021/05/01 14:55:06;;;;;;;16.03;2.23;;;13.50;1.00;;;;;;6154544;23;20459;-82
2021/05/01 15:04:27;;;;;;;16.47;2.17;;;13.60;1.00;;;;;;6065556;23;20904;-82
2021/05/01 15:07:56;;;;;;;;;;;;;;;;;;;;;
2021/05/01 15:10:36;;;;;;;21.93;3.57;;;13.30;1.00;;;;;;6153923;23;20409;-85
2021/05/01 15:16:36;;;;;;;17.13;3.97;;;13.90;1.00;;;;;;6144175;23;20409;-83
2021/05/01 15:19:18;;;;;;;19.40;4.00;;;14.20;1.00;;;;;;6101326;23;20417;-83
2021/05/01 15:25:56;;;;;;;;;;;;;;;;;;;;;
2021/05/01 15:28:33;;;;;;;25.50;3.60;;;15.20;1.00;;;;;;5945237;24;20508;-83
2021/05/01 15:31:42;;;;;;;18.60;3.10;;;16.30;1.00;;;;;;5952534;24;20450;-84
2021/05/01 15:34:14;;;;;;;21.00;3.00;;;15.70;1.00;;;;;;6050850;23;20497;-81
2021/05/01 15:36:58;;;;;;;;;;;;;;;;;;;;;
2021/05/01 15:39:50;;;;;;;22.43;3.73;;;14.90;1.00;;;;;;6159504;23;20482;-81
2021/05/01 15:48:21;;;;;;;19.17;4.00;;;14.00;1.00;;;;;;6165507;23;20438;-84
2021/05/01 15:50:54;;;;;;;19.98;3.40;;;13.70;1.00;;;;;;6154624;23;20459;-83
2021/05/01 15:53:34;;;;;;;22.20;4.27;;;13.60;1.00;;;;;;6165576;23;20230;-84
2021/05/01 15:56:35;;;;;;;19.30;3.57;;;13.70;1.00;;;;;;6154807;23;20406;-83
2021/05/01 15:59:41;;;;;;;19.00;4.00;;;14.00;1.00;;;;;;6156051;23;20397;-84
2021/05/01 16:02:51;;;;;;;;;;;;;;;;;;;;;
2021/05/01 16:05:52;;;;;;;16.90;3.00;;;14.00;1.00;;;;;;6017983;23;20425;-84
2021/05/01 16:08:25;;;;;;;16.10;2.40;;;13.70;1.00;;;;;;6005027;23;20449;-83
2021/05/01 16:23:41;;;;;;;16.53;2.63;;;13.30;1.00;;;;;;6029199;23;20420;-83
2021/05/01 16:26:26;;;;;;;;;;;;;;;;;;;;;
2021/05/01 16:29:17;;;;;;;15.23;2.63;;;13.00;1.00;;;;;;6112043;23;20973;-84
2021/05/01 16:37:53;;;;;;;16.67;3.33;;;12.70;1.00;;;;;;6124401;23;20437;-83
2021/05/01 16:40:43;;;;;;;;;;;;;;;;;;;;;
2021/05/01 16:47:04;;;;;;;;;;;;;;;;;;;;;
2021/05/01 16:50:05;;;;;;;13.67;2.77;;;12.50;1.00;;;;;;6005313;23;20421;-83
2021/05/01 16:56:55;;;;;;;20.27;4.40;;;12.60;1.00;;;;;;5841301;24;20428;-84
2021/05/01 17:00:34;;;;;;;;;;;;;;;;;;;;;
2021/05/01 17:09:47;;;;;;;15.57;3.00;;;13.30;1.00;;;;;;5902911;24;20426;-83
2021/05/01 17:12:49;;;;;;;13.83;2.63;;;13.20;1.00;;;;;;6004857;23;20429;-83
2021/05/01 17:21:50;;;;;;;17.27;3.23;;;14.20;1.00;;;;;;5885475;24;20552;-84
2021/05/01 17:24:23;;;;;;;17.90;3.90;;;14.70;1.00;;;;;;6045532;23;21178;-85
2021/05/01 17:27:13;;;;;;;16.23;3.63;;;14.30;1.00;;;;;;6088385;23;20471;-83
2021/05/01 17:32:58;;;;;;;16.93;3.30;;;13.90;1.00;;;;;;6162291;23;20410;-83
2021/05/01 17:36:06;;;;;;;14.80;2.97;;;14.10;1.00;;;;;;6103235;23;20446;-83
2021/05/01 17:45:06;;;;;;;18.90;3.93;;;14.30;1.00;;;;;;6090927;23;20442;-83
2021/05/01 17:51:28;;;;;;;17.77;3.97;;;14.00;1.00;;;;;;5978910;24;20415;-83
2021/05/01 18:26:19;;;;;;;;;;;;;;;;;;;;;
2021/05/01 18:35:09;;;;;;;22.40;4.90;;;10.50;1.00;;;;;;6035918;23;20452;-82
2021/05/01 18:38:39;;;;;;;15.83;4.70;;;10.60;1.00;;;;;;6037044;23;20784;-83
2021/05/01 18:41:17;;;;;;;10.93;2.60;;;10.50;1.00;;;;;;5928065;24;20471;-82
2021/05/01 18:50:01;;;;;;;15.53;4.47;;;9.80;1.00;;;;;;5962108;24;20424;-82
2021/05/01 18:53:20;;;;;;;15.23;5.83;;;9.50;4.40;;;;;;5962402;24;20986;-83
2021/05/01 18:59:35;;;;;;;;;;;;;;;;;;;;;
2021/05/01 19:02:32;;;;;;;14.73;5.40;;;9.00;10.20;;;;;;5951193;23;20422;-83
2021/05/01 19:12:12;;;;;;;19.57;5.30;;;8.60;14.20;;;;;;6100108;23;20522;-82
2021/05/01 19:17:56;;;;;;;;;;;;;;;;;;;;;
2021/05/01 19:24:36;;;;;;;12.83;4.60;;;8.10;21.60;;;;;;6138954;23;20513;-83
2021/05/01 19:27:11;;;;;;;15.43;5.67;;;7.90;25.60;;;;;;6119661;23;20474;-84
2021/05/01 19:29:59;;;;;;;;;;;;;;;;;;;;;